sensor_id;sensor_type;location;lat;lon;timestamp;temperature;humidity
6174;DHT22;3120;48.796;9.796;2023-06-22T00:00:58;20.50;98.70
6174;DHT22;3120;48.796;9.796;2023-06-22T00:03:25;20.40;99.40
6174;DHT22;3120;48.796;9.796;2023-06-22T00:05:51;20.40;99.60
6174;DHT22;3120;48.796;9.796;2023-06-22T00:08:18;20.30;99.90
6174;DHT22;3120;48.796;9.796;2023-06-22T00:10:44;20.40;99.80
6174;DHT22;3120;48.796;9.796;2023-06-22T00:13:10;20.30;99.50
6174;DHT22;3120;48.796;9.796;2023-06-22T00:15:38;20.40;99.70
6174;DHT22;3120;48.796;9.796;2023-06-22T00:18:05;20.50;99.60
6174;DHT22;3120;48.796;9.796;2023-06-22T00:20:31;20.30;99.60
6174;DHT22;3120;48.796;9.796;2023-06-22T00:22:58;20.40;99.50
6174;DHT22;3120;48.796;9.796;2023-06-22T00:25:24;20.30;99.70
6174;DHT22;3120;48.796;9.796;2023-06-22T00:27:50;20.10;99.20
6174;DHT22;3120;48.796;9.796;2023-06-22T00:30:16;20.30;99.50
6174;DHT22;3120;48.796;9.796;2023-06-22T00:32:43;20.30;99.30
6174;DHT22;3120;48.796;9.796;2023-06-22T00:35:09;20.30;99.00
6174;DHT22;3120;48.796;9.796;2023-06-22T00:37:36;20.30;99.00
6174;DHT22;3120;48.796;9.796;2023-06-22T00:40:02;20.30;99.20
6174;DHT22;3120;48.796;9.796;2023-06-22T00:42:29;20.20;99.50
6174;DHT22;3120;48.796;9.796;2023-06-22T00:44:54;20.20;99.50
6174;DHT22;3120;48.796;9.796;2023-06-22T00:47:20;20.10;99.70
6174;DHT22;3120;48.796;9.796;2023-06-22T00:49:48;20.10;99.90
6174;DHT22;3120;48.796;9.796;2023-06-22T00:52:17;20.00;99.90
6174;DHT22;3120;48.796;9.796;2023-06-22T00:54:50;19.90;99.90
6174;DHT22;3120;48.796;9.796;2023-06-22T00:57:17;19.90;99.90
6174;DHT22;3120;48.796;9.796;2023-06-22T00:59:44;19.90;99.90
6174;DHT22;3120;48.796;9.796;2023-06-22T01:02:11;19.90;99.90
6174;DHT22;3120;48.796;9.796;2023-06-22T01:04:38;19.80;99.90
6174;DHT22;3120;48.796;9.796;2023-06-22T01:07:21;19.80;99.90
6174;DHT22;3120;48.796;9.796;2023-06-22T01:10:03;19.80;99.90
6174;DHT22;3120;48.796;9.796;2023-06-22T01:12:34;19.70;99.90
6174;DHT22;3120;48.796;9.796;2023-06-22T01:15:43;19.70;99.90
6174;DHT22;3120;48.796;9.796;2023-06-22T01:18:04;19.70;99.90
6174;DHT22;3120;48.796;9.796;2023-06-22T01:20:31;19.60;99.90
6174;DHT22;3120;48.796;9.796;2023-06-22T01:23:09;19.80;99.90
6174;DHT22;3120;48.796;9.796;2023-06-22T01:25:48;19.60;99.90
6174;DHT22;3120;48.796;9.796;2023-06-22T01:31:01;19.60;99.90
6174;DHT22;3120;48.796;9.796;2023-06-22T01:33:33;19.60;99.90
6174;DHT22;3120;48.796;9.796;2023-06-22T01:36:00;19.60;99.90
6174;DHT22;3120;48.796;9.796;2023-06-22T01:38:28;19.60;99.90
6174;DHT22;3120;48.796;9.796;2023-06-22T01:40:54;19.70;99.90
6174;DHT22;3120;48.796;9.796;2023-06-22T01:43:22;19.70;99.90
6174;DHT22;3120;48.796;9.796;2023-06-22T01:45:49;19.50;99.90
6174;DHT22;3120;48.796;9.796;2023-06-22T01:48:15;19.40;99.90
6174;DHT22;3120;48.796;9.796;2023-06-22T01:50:41;19.30;99.90
6174;DHT22;3120;48.796;9.796;2023-06-22T01:53:07;19.30;99.90
6174;DHT22;3120;48.796;9.796;2023-06-22T01:55:32;19.30;99.90
6174;DHT22;3120;48.796;9.796;2023-06-22T01:57:58;19.20;99.90
6174;DHT22;3120;48.796;9.796;2023-06-22T02:00:25;19.20;99.90
6174;DHT22;3120;48.796;9.796;2023-06-22T02:02:56;19.10;99.90
6174;DHT22;3120;48.796;9.796;2023-06-22T02:05:26;19.10;99.90
6174;DHT22;3120;48.796;9.796;2023-06-22T02:08:06;19.10;99.90
6174;DHT22;3120;48.796;9.796;2023-06-22T02:10:34;19.10;99.90
6174;DHT22;3120;48.796;9.796;2023-06-22T02:13:01;18.90;99.90
6174;DHT22;3120;48.796;9.796;2023-06-22T02:15:26;18.90;99.90
6174;DHT22;3120;48.796;9.796;2023-06-22T02:17:52;18.70;99.90
6174;DHT22;3120;48.796;9.796;2023-06-22T02:20:18;18.90;99.90
6174;DHT22;3120;48.796;9.796;2023-06-22T02:22:43;18.80;99.90
6174;DHT22;3120;48.796;9.796;2023-06-22T02:25:09;18.90;99.90
6174;DHT22;3120;48.796;9.796;2023-06-22T02:27:35;18.80;99.90
6174;DHT22;3120;48.796;9.796;2023-06-22T02:30:00;18.90;99.90
6174;DHT22;3120;48.796;9.796;2023-06-22T02:32:26;18.80;99.90
6174;DHT22;3120;48.796;9.796;2023-06-22T02:34:52;18.70;99.90
6174;DHT22;3120;48.796;9.796;2023-06-22T02:37:18;18.70;99.90
6174;DHT22;3120;48.796;9.796;2023-06-22T02:39:44;18.80;99.90
6174;DHT22;3120;48.796;9.796;2023-06-22T02:42:09;18.80;99.90
6174;DHT22;3120;48.796;9.796;2023-06-22T02:44:38;18.70;99.90
6174;DHT22;3120;48.796;9.796;2023-06-22T02:47:04;18.70;99.90
6174;DHT22;3120;48.796;9.796;2023-06-22T02:49:30;18.80;99.90
6174;DHT22;3120;48.796;9.796;2023-06-22T02:51:57;18.60;99.90
6174;DHT22;3120;48.796;9.796;2023-06-22T02:54:25;18.60;99.90
6174;DHT22;3120;48.796;9.796;2023-06-22T02:56:50;18.60;99.90
6174;DHT22;3120;48.796;9.796;2023-06-22T02:59:16;18.60;99.90
6174;DHT22;3120;48.796;9.796;2023-06-22T03:01:41;18.70;99.90
6174;DHT22;3120;48.796;9.796;2023-06-22T03:04:08;18.70;99.90
6174;DHT22;3120;48.796;9.796;2023-06-22T03:06:34;18.60;99.90
6174;DHT22;3120;48.796;9.796;2023-06-22T03:09:03;18.50;99.90
6174;DHT22;3120;48.796;9.796;2023-06-22T03:11:33;18.60;99.90
6174;DHT22;3120;48.796;9.796;2023-06-22T03:14:00;18.70;99.90
6174;DHT22;3120;48.796;9.796;2023-06-22T03:16:26;18.70;99.90
6174;DHT22;3120;48.796;9.796;2023-06-22T03:18:52;18.60;99.90
6174;DHT22;3120;48.796;9.796;2023-06-22T03:21:19;18.80;99.90
6174;DHT22;3120;48.796;9.796;2023-06-22T03:23:45;18.70;99.90
6174;DHT22;3120;48.796;9.796;2023-06-22T03:26:10;18.70;99.90
6174;DHT22;3120;48.796;9.796;2023-06-22T03:28:37;18.60;99.90
6174;DHT22;3120;48.796;9.796;2023-06-22T03:31:03;18.60;99.90
6174;DHT22;3120;48.796;9.796;2023-06-22T03:33:29;18.50;99.90
6174;DHT22;3120;48.796;9.796;2023-06-22T03:35:55;18.60;99.90
6174;DHT22;3120;48.796;9.796;2023-06-22T03:38:20;18.50;99.90
6174;DHT22;3120;48.796;9.796;2023-06-22T03:40:46;18.60;99.90
6174;DHT22;3120;48.796;9.796;2023-06-22T03:43:12;18.50;99.90
6174;DHT22;3120;48.796;9.796;2023-06-22T03:45:37;18.60;99.90
6174;DHT22;3120;48.796;9.796;2023-06-22T03:48:03;18.60;99.90
6174;DHT22;3120;48.796;9.796;2023-06-22T03:50:28;18.70;99.90
6174;DHT22;3120;48.796;9.796;2023-06-22T03:52:55;18.70;99.90
6174;DHT22;3120;48.796;9.796;2023-06-22T03:55:20;18.70;99.90
6174;DHT22;3120;48.796;9.796;2023-06-22T03:57:46;18.80;99.90
6174;DHT22;3120;48.796;9.796;2023-06-22T04:00:13;18.90;99.90
6174;DHT22;3120;48.796;9.796;2023-06-22T04:02:38;18.90;99.90
6174;DHT22;3120;48.796;9.796;2023-06-22T04:05:04;18.90;99.90
6174;DHT22;3120;48.796;9.796;2023-06-22T04:07:30;19.00;99.90
6174;DHT22;3120;48.796;9.796;2023-06-22T04:09:56;19.00;99.90
6174;DHT22;3120;48.796;9.796;2023-06-22T04:12:21;19.00;99.90
6174;DHT22;3120;48.796;9.796;2023-06-22T04:14:47;19.00;99.90
6174;DHT22;3120;48.796;9.796;2023-06-22T04:17:12;19.10;99.90
6174;DHT22;3120;48.796;9.796;2023-06-22T04:19:40;19.10;99.90
6174;DHT22;3120;48.796;9.796;2023-06-22T04:22:12;19.10;99.90
6174;DHT22;3120;48.796;9.796;2023-06-22T04:24:38;19.20;99.90
6174;DHT22;3120;48.796;9.796;2023-06-22T04:27:04;19.20;99.90
6174;DHT22;3120;48.796;9.796;2023-06-22T04:29:30;19.30;99.90
6174;DHT22;3120;48.796;9.796;2023-06-22T04:31:56;19.40;99.90
6174;DHT22;3120;48.796;9.796;2023-06-22T04:34:24;19.50;99.90
6174;DHT22;3120;48.796;9.796;2023-06-22T04:36:51;19.50;99.90
6174;DHT22;3120;48.796;9.796;2023-06-22T04:39:17;19.60;99.90
6174;DHT22;3120;48.796;9.796;2023-06-22T04:41:44;19.70;99.90
6174;DHT22;3120;48.796;9.796;2023-06-22T04:44:15;19.70;99.90
6174;DHT22;3120;48.796;9.796;2023-06-22T04:46:55;19.70;99.90
6174;DHT22;3120;48.796;9.796;2023-06-22T04:49:26;19.80;99.90
6174;DHT22;3120;48.796;9.796;2023-06-22T04:52:02;19.80;99.90
6174;DHT22;3120;48.796;9.796;2023-06-22T04:54:28;19.90;99.90
6174;DHT22;3120;48.796;9.796;2023-06-22T04:56:53;20.00;99.90
6174;DHT22;3120;48.796;9.796;2023-06-22T04:59:31;20.10;99.90
6174;DHT22;3120;48.796;9.796;2023-06-22T05:01:58;20.10;99.90
6174;DHT22;3120;48.796;9.796;2023-06-22T05:04:25;20.20;99.90
6174;DHT22;3120;48.796;9.796;2023-06-22T05:06:51;20.30;99.90
6174;DHT22;3120;48.796;9.796;2023-06-22T05:09:17;20.40;99.50
6174;DHT22;3120;48.796;9.796;2023-06-22T05:11:44;20.50;99.00
6174;DHT22;3120;48.796;9.796;2023-06-22T05:14:10;20.70;98.50
6174;DHT22;3120;48.796;9.796;2023-06-22T05:16:36;20.60;98.40
6174;DHT22;3120;48.796;9.796;2023-06-22T05:19:02;20.60;98.50
6174;DHT22;3120;48.796;9.796;2023-06-22T05:21:29;20.70;97.60
6174;DHT22;3120;48.796;9.796;2023-06-22T05:23:56;20.70;97.50
6174;DHT22;3120;48.796;9.796;2023-06-22T05:26:34;21.00;97.20
6174;DHT22;3120;48.796;9.796;2023-06-22T05:32:56;21.30;95.90
6174;DHT22;3120;48.796;9.796;2023-06-22T05:39:44;21.60;95.60
6174;DHT22;3120;48.796;9.796;2023-06-22T05:49:38;21.80;94.00
6174;DHT22;3120;48.796;9.796;2023-06-22T05:52:13;21.80;94.00
6174;DHT22;3120;48.796;9.796;2023-06-22T05:54:49;21.80;93.50
6174;DHT22;3120;48.796;9.796;2023-06-22T05:57:52;22.00;93.50
6174;DHT22;3120;48.796;9.796;2023-06-22T06:00:21;22.20;93.50
6174;DHT22;3120;48.796;9.796;2023-06-22T06:02:49;22.30;92.30
6174;DHT22;3120;48.796;9.796;2023-06-22T12:52:09;38.10;35.60
6174;DHT22;3120;48.796;9.796;2023-06-22T12:54:35;37.90;35.80
6174;DHT22;3120;48.796;9.796;2023-06-22T12:57:01;37.20;37.30
6174;DHT22;3120;48.796;9.796;2023-06-22T12:59:27;36.80;38.40
6174;DHT22;3120;48.796;9.796;2023-06-22T13:01:59;36.30;38.40
6174;DHT22;3120;48.796;9.796;2023-06-22T13:04:25;36.10;39.60
6174;DHT22;3120;48.796;9.796;2023-06-22T13:06:50;36.30;39.50
6174;DHT22;3120;48.796;9.796;2023-06-22T13:09:18;36.10;39.60
6174;DHT22;3120;48.796;9.796;2023-06-22T13:11:44;35.60;40.90
6174;DHT22;3120;48.796;9.796;2023-06-22T13:14:10;34.80;42.40
6174;DHT22;3120;48.796;9.796;2023-06-22T13:16:36;34.30;43.40
6174;DHT22;3120;48.796;9.796;2023-06-22T13:19:02;34.20;43.80
6174;DHT22;3120;48.796;9.796;2023-06-22T13:21:27;34.00;43.70
6174;DHT22;3120;48.796;9.796;2023-06-22T13:23:53;33.80;43.80
6174;DHT22;3120;48.796;9.796;2023-06-22T13:26:21;33.60;43.80
6174;DHT22;3120;48.796;9.796;2023-06-22T13:28:46;33.60;44.60
6174;DHT22;3120;48.796;9.796;2023-06-22T13:31:12;34.10;43.60
6174;DHT22;3120;48.796;9.796;2023-06-22T13:33:38;34.50;42.60
6174;DHT22;3120;48.796;9.796;2023-06-22T13:39:25;34.50;41.40
6174;DHT22;3120;48.796;9.796;2023-06-22T13:41:51;34.90;41.10
6174;DHT22;3120;48.796;9.796;2023-06-22T13:44:17;35.00;40.20
6174;DHT22;3120;48.796;9.796;2023-06-22T13:46:42;35.00;40.20
6174;DHT22;3120;48.796;9.796;2023-06-22T13:49:21;34.90;40.80
6174;DHT22;3120;48.796;9.796;2023-06-22T13:51:47;34.90;40.70
6174;DHT22;3120;48.796;9.796;2023-06-22T13:54:16;35.50;39.80
6174;DHT22;3120;48.796;9.796;2023-06-22T13:56:42;36.40;37.80
6174;DHT22;3120;48.796;9.796;2023-06-22T13:59:07;37.30;37.30
6174;DHT22;3120;48.796;9.796;2023-06-22T14:01:35;37.50;36.00
6174;DHT22;3120;48.796;9.796;2023-06-22T14:04:01;37.90;34.20
6174;DHT22;3120;48.796;9.796;2023-06-22T14:06:27;38.50;32.20
6174;DHT22;3120;48.796;9.796;2023-06-22T14:08:53;39.50;30.80
6174;DHT22;3120;48.796;9.796;2023-06-22T14:11:54;39.90;29.20
6174;DHT22;3120;48.796;9.796;2023-06-22T14:14:22;38.80;31.50
6174;DHT22;3120;48.796;9.796;2023-06-22T14:16:54;38.40;31.80
6174;DHT22;3120;48.796;9.796;2023-06-22T14:19:19;37.30;34.30
6174;DHT22;3120;48.796;9.796;2023-06-22T14:21:45;36.50;37.20
6174;DHT22;3120;48.796;9.796;2023-06-22T14:24:10;35.90;35.70
6174;DHT22;3120;48.796;9.796;2023-06-22T14:27:03;35.80;37.00
6174;DHT22;3120;48.796;9.796;2023-06-22T14:29:33;35.70;35.40
6174;DHT22;3120;48.796;9.796;2023-06-22T14:35:16;36.50;34.20
6174;DHT22;3120;48.796;9.796;2023-06-22T14:37:43;37.60;31.60
6174;DHT22;3120;48.796;9.796;2023-06-22T14:40:09;38.00;32.10
6174;DHT22;3120;48.796;9.796;2023-06-22T14:42:42;38.10;32.70
6174;DHT22;3120;48.796;9.796;2023-06-22T14:45:08;38.00;32.50
6174;DHT22;3120;48.796;9.796;2023-06-22T14:47:33;37.50;31.60
6174;DHT22;3120;48.796;9.796;2023-06-22T14:49:59;37.20;32.40
6174;DHT22;3120;48.796;9.796;2023-06-22T14:52:26;36.30;34.70
6174;DHT22;3120;48.796;9.796;2023-06-22T14:54:52;36.30;36.70
6174;DHT22;3120;48.796;9.796;2023-06-22T14:57:18;37.00;33.40
6174;DHT22;3120;48.796;9.796;2023-06-22T15:03:07;39.30;29.50
6174;DHT22;3120;48.796;9.796;2023-06-22T15:05:36;39.80;27.60
6174;DHT22;3120;48.796;9.796;2023-06-22T15:08:02;39.40;28.40
6174;DHT22;3120;48.796;9.796;2023-06-22T15:10:27;39.20;28.80
6174;DHT22;3120;48.796;9.796;2023-06-22T15:12:54;39.10;29.10
6174;DHT22;3120;48.796;9.796;2023-06-22T15:15:20;39.30;28.70
6174;DHT22;3120;48.796;9.796;2023-06-22T15:17:45;39.70;28.30
6174;DHT22;3120;48.796;9.796;2023-06-22T15:20:11;39.90;29.40
6174;DHT22;3120;48.796;9.796;2023-06-22T15:23:06;39.80;28.40
6174;DHT22;3120;48.796;9.796;2023-06-22T15:36:27;36.60;32.30
6174;DHT22;3120;48.796;9.796;2023-06-22T15:38:52;36.20;33.00
6174;DHT22;3120;48.796;9.796;2023-06-22T15:41:18;36.90;31.80
6174;DHT22;3120;48.796;9.796;2023-06-22T15:43:43;37.70;31.20
6174;DHT22;3120;48.796;9.796;2023-06-22T15:46:09;38.20;30.40
6174;DHT22;3120;48.796;9.796;2023-06-22T15:48:34;38.30;30.80
6174;DHT22;3120;48.796;9.796;2023-06-22T15:51:00;38.40;31.50
6174;DHT22;3120;48.796;9.796;2023-06-22T15:53:27;38.90;29.70
6174;DHT22;3120;48.796;9.796;2023-06-22T15:55:52;39.40;28.90
6174;DHT22;3120;48.796;9.796;2023-06-22T15:58:20;39.70;28.70
6174;DHT22;3120;48.796;9.796;2023-06-22T16:00:46;40.70;27.60
6174;DHT22;3120;48.796;9.796;2023-06-22T16:03:14;40.50;27.70
6174;DHT22;3120;48.796;9.796;2023-06-22T16:05:41;39.60;28.40
6174;DHT22;3120;48.796;9.796;2023-06-22T16:08:10;39.20;28.80
6174;DHT22;3120;48.796;9.796;2023-06-22T16:10:42;39.60;28.40
6174;DHT22;3120;48.796;9.796;2023-06-22T16:13:08;39.90;28.70
6174;DHT22;3120;48.796;9.796;2023-06-22T16:15:33;39.80;28.50
6174;DHT22;3120;48.796;9.796;2023-06-22T16:17:59;39.90;28.40
6174;DHT22;3120;48.796;9.796;2023-06-22T16:20:24;39.80;28.40
6174;DHT22;3120;48.796;9.796;2023-06-22T16:22:50;38.60;30.00
6174;DHT22;3120;48.796;9.796;2023-06-22T16:25:16;38.20;30.00
6174;DHT22;3120;48.796;9.796;2023-06-22T16:27:44;38.00;31.00
6174;DHT22;3120;48.796;9.796;2023-06-22T16:30:10;37.50;31.80
6174;DHT22;3120;48.796;9.796;2023-06-22T16:32:35;37.50;31.00
6174;DHT22;3120;48.796;9.796;2023-06-22T16:35:02;37.50;31.00
6174;DHT22;3120;48.796;9.796;2023-06-22T16:37:28;37.30;31.10
6174;DHT22;3120;48.796;9.796;2023-06-22T16:39:54;37.20;31.20
6174;DHT22;3120;48.796;9.796;2023-06-22T16:42:20;37.00;30.70
6174;DHT22;3120;48.796;9.796;2023-06-22T16:44:45;36.90;30.80
6174;DHT22;3120;48.796;9.796;2023-06-22T16:47:11;36.40;31.80
6174;DHT22;3120;48.796;9.796;2023-06-22T16:49:37;35.90;32.40
6174;DHT22;3120;48.796;9.796;2023-06-22T16:52:04;35.10;33.40
6174;DHT22;3120;48.796;9.796;2023-06-22T16:54:30;34.70;33.80
6174;DHT22;3120;48.796;9.796;2023-06-22T16:56:59;34.60;35.10
6174;DHT22;3120;48.796;9.796;2023-06-22T16:59:24;34.60;34.10
6174;DHT22;3120;48.796;9.796;2023-06-22T17:01:54;34.50;33.50
6174;DHT22;3120;48.796;9.796;2023-06-22T17:04:24;34.40;33.00
6174;DHT22;3120;48.796;9.796;2023-06-22T17:07:12;34.30;33.30
6174;DHT22;3120;48.796;9.796;2023-06-22T17:09:40;34.20;33.10
6174;DHT22;3120;48.796;9.796;2023-06-22T17:12:08;34.00;33.40
6174;DHT22;3120;48.796;9.796;2023-06-22T17:14:34;33.40;33.50
6174;DHT22;3120;48.796;9.796;2023-06-22T17:17:01;32.90;34.50
6174;DHT22;3120;48.796;9.796;2023-06-22T17:19:27;33.10;34.10
6174;DHT22;3120;48.796;9.796;2023-06-22T17:21:54;33.60;33.40
6174;DHT22;3120;48.796;9.796;2023-06-22T17:24:20;34.30;32.20
6174;DHT22;3120;48.796;9.796;2023-06-22T17:26:48;34.90;32.00
6174;DHT22;3120;48.796;9.796;2023-06-22T17:29:14;35.50;31.00
6174;DHT22;3120;48.796;9.796;2023-06-22T17:31:42;35.50;31.30
6174;DHT22;3120;48.796;9.796;2023-06-22T17:37:46;34.20;33.30
6174;DHT22;3120;48.796;9.796;2023-06-22T17:40:17;33.10;34.70
6174;DHT22;3120;48.796;9.796;2023-06-22T17:42:43;32.10;35.70
6174;DHT22;3120;48.796;9.796;2023-06-22T17:45:22;31.60;36.70
6174;DHT22;3120;48.796;9.796;2023-06-22T17:47:53;31.20;37.20
6174;DHT22;3120;48.796;9.796;2023-06-22T17:50:24;31.10;37.70
6174;DHT22;3120;48.796;9.796;2023-06-22T17:52:54;31.00;38.00
6174;DHT22;3120;48.796;9.796;2023-06-22T17:55:24;30.90;38.70
6174;DHT22;3120;48.796;9.796;2023-06-22T17:57:58;30.80;39.50
6174;DHT22;3120;48.796;9.796;2023-06-22T18:00:28;30.80;39.40
6174;DHT22;3120;48.796;9.796;2023-06-22T18:02:56;30.60;39.50
6174;DHT22;3120;48.796;9.796;2023-06-22T18:05:31;30.40;40.10
6174;DHT22;3120;48.796;9.796;2023-06-22T18:08:02;30.20;40.10
6174;DHT22;3120;48.796;9.796;2023-06-22T18:10:29;30.10;40.30
6174;DHT22;3120;48.796;9.796;2023-06-22T18:12:55;30.00;40.40
6174;DHT22;3120;48.796;9.796;2023-06-22T18:15:23;30.00;40.30
6174;DHT22;3120;48.796;9.796;2023-06-22T18:17:50;29.80;40.30
6174;DHT22;3120;48.796;9.796;2023-06-22T18:20:17;29.70;40.30
6174;DHT22;3120;48.796;9.796;2023-06-22T18:22:43;29.50;40.70
6174;DHT22;3120;48.796;9.796;2023-06-22T18:25:10;29.50;40.90
6174;DHT22;3120;48.796;9.796;2023-06-22T18:27:36;29.40;41.20
6174;DHT22;3120;48.796;9.796;2023-06-22T18:30:03;29.20;41.40
6174;DHT22;3120;48.796;9.796;2023-06-22T18:32:29;29.10;41.70
6174;DHT22;3120;48.796;9.796;2023-06-22T18:34:57;29.00;41.80
6174;DHT22;3120;48.796;9.796;2023-06-22T18:37:23;28.90;42.00
6174;DHT22;3120;48.796;9.796;2023-06-22T18:39:54;28.80;42.50
6174;DHT22;3120;48.796;9.796;2023-06-22T18:42:22;28.70;42.70
6174;DHT22;3120;48.796;9.796;2023-06-22T18:44:52;28.60;42.90
6174;DHT22;3120;48.796;9.796;2023-06-22T18:47:30;28.60;43.30
6174;DHT22;3120;48.796;9.796;2023-06-22T18:50:06;28.50;43.50
6174;DHT22;3120;48.796;9.796;2023-06-22T18:52:33;28.50;43.60
6174;DHT22;3120;48.796;9.796;2023-06-22T18:55:04;28.40;43.40
6174;DHT22;3120;48.796;9.796;2023-06-22T18:57:33;28.30;43.40
6174;DHT22;3120;48.796;9.796;2023-06-22T19:00:00;28.20;43.90
6174;DHT22;3120;48.796;9.796;2023-06-22T19:02:47;28.20;44.00
6174;DHT22;3120;48.796;9.796;2023-06-22T19:05:40;28.10;44.00
6174;DHT22;3120;48.796;9.796;2023-06-22T19:08:07;28.10;43.70
6174;DHT22;3120;48.796;9.796;2023-06-22T19:10:39;28.10;43.70
6174;DHT22;3120;48.796;9.796;2023-06-22T19:20:51;27.80;44.10
6174;DHT22;3120;48.796;9.796;2023-06-22T19:23:30;27.70;43.70
6174;DHT22;3120;48.796;9.796;2023-06-22T19:25:57;27.60;44.10
6174;DHT22;3120;48.796;9.796;2023-06-22T19:28:29;27.50;44.50
6174;DHT22;3120;48.796;9.796;2023-06-22T19:30:59;27.50;44.60
6174;DHT22;3120;48.796;9.796;2023-06-22T19:33:26;27.50;45.10
6174;DHT22;3120;48.796;9.796;2023-06-22T19:35:56;27.40;45.70
6174;DHT22;3120;48.796;9.796;2023-06-22T19:38:24;27.40;45.20
6174;DHT22;3120;48.796;9.796;2023-06-22T19:40:50;27.20;45.10
6174;DHT22;3120;48.796;9.796;2023-06-22T19:43:16;27.20;45.50
6174;DHT22;3120;48.796;9.796;2023-06-22T19:45:43;27.10;45.50
6174;DHT22;3120;48.796;9.796;2023-06-22T19:48:18;27.00;45.60
6174;DHT22;3120;48.796;9.796;2023-06-22T19:50:44;26.90;45.80
6174;DHT22;3120;48.796;9.796;2023-06-22T19:53:12;26.80;46.10
6174;DHT22;3120;48.796;9.796;2023-06-22T19:55:43;26.70;46.50
6174;DHT22;3120;48.796;9.796;2023-06-22T19:58:13;26.70;46.60
6174;DHT22;3120;48.796;9.796;2023-06-22T20:00:40;26.60;46.70
6174;DHT22;3120;48.796;9.796;2023-06-22T20:03:16;26.60;46.90
6174;DHT22;3120;48.796;9.796;2023-06-22T20:05:43;26.60;47.00
6174;DHT22;3120;48.796;9.796;2023-06-22T20:08:14;26.50;47.40
6174;DHT22;3120;48.796;9.796;2023-06-22T20:10:40;26.30;47.60
6174;DHT22;3120;48.796;9.796;2023-06-22T20:13:18;26.30;48.10
6174;DHT22;3120;48.796;9.796;2023-06-22T20:15:46;26.30;48.50
6174;DHT22;3120;48.796;9.796;2023-06-22T20:18:14;26.10;48.80
6174;DHT22;3120;48.796;9.796;2023-06-22T20:20:45;26.00;49.00
6174;DHT22;3120;48.796;9.796;2023-06-22T20:23:12;25.90;49.30
6174;DHT22;3120;48.796;9.796;2023-06-22T20:25:42;25.80;49.80
6174;DHT22;3120;48.796;9.796;2023-06-22T20:28:16;25.70;50.00
6174;DHT22;3120;48.796;9.796;2023-06-22T20:33:28;25.60;50.60
6174;DHT22;3120;48.796;9.796;2023-06-22T20:35:53;25.50;50.90
6174;DHT22;3120;48.796;9.796;2023-06-22T20:38:19;25.50;51.20
6174;DHT22;3120;48.796;9.796;2023-06-22T20:40:48;25.50;51.50
6174;DHT22;3120;48.796;9.796;2023-06-22T20:43:14;25.50;51.90
6174;DHT22;3120;48.796;9.796;2023-06-22T20:45:52;25.40;52.30
6174;DHT22;3120;48.796;9.796;2023-06-22T20:48:21;25.40;52.90
6174;DHT22;3120;48.796;9.796;2023-06-22T20:50:56;25.30;53.50
6174;DHT22;3120;48.796;9.796;2023-06-22T20:53:22;25.10;53.90
6174;DHT22;3120;48.796;9.796;2023-06-22T20:55:48;25.00;54.30
6174;DHT22;3120;48.796;9.796;2023-06-22T20:58:14;24.80;54.90
6174;DHT22;3120;48.796;9.796;2023-06-22T21:00:39;24.70;55.60
6174;DHT22;3120;48.796;9.796;2023-06-22T21:03:09;24.60;56.10
6174;DHT22;3120;48.796;9.796;2023-06-22T21:05:39;24.50;57.10
6174;DHT22;3120;48.796;9.796;2023-06-22T21:08:09;24.40;57.60
6174;DHT22;3120;48.796;9.796;2023-06-22T21:10:35;24.30;58.30
6174;DHT22;3120;48.796;9.796;2023-06-22T21:13:00;24.20;58.80
6174;DHT22;3120;48.796;9.796;2023-06-22T21:15:27;24.10;59.30
6174;DHT22;3120;48.796;9.796;2023-06-22T21:17:53;24.10;59.80
6174;DHT22;3120;48.796;9.796;2023-06-22T21:20:18;24.00;60.20
6174;DHT22;3120;48.796;9.796;2023-06-22T21:22:44;24.00;60.80
6174;DHT22;3120;48.796;9.796;2023-06-22T21:25:12;24.00;61.40
6174;DHT22;3120;48.796;9.796;2023-06-22T21:27:40;23.80;62.60
6174;DHT22;3120;48.796;9.796;2023-06-22T21:30:07;23.70;63.60
6174;DHT22;3120;48.796;9.796;2023-06-22T21:32:33;23.60;64.30
6174;DHT22;3120;48.796;9.796;2023-06-22T21:34:59;23.50;65.30
6174;DHT22;3120;48.796;9.796;2023-06-22T21:37:25;23.40;65.80
6174;DHT22;3120;48.796;9.796;2023-06-22T21:39:51;23.50;66.60
6174;DHT22;3120;48.796;9.796;2023-06-22T21:42:17;23.30;67.00
6174;DHT22;3120;48.796;9.796;2023-06-22T21:44:44;23.20;67.60
6174;DHT22;3120;48.796;9.796;2023-06-22T21:47:10;23.10;68.40
6174;DHT22;3120;48.796;9.796;2023-06-22T21:49:35;22.90;68.90
6174;DHT22;3120;48.796;9.796;2023-06-22T21:52:01;23.00;69.50
6174;DHT22;3120;48.796;9.796;2023-06-22T21:54:27;22.90;69.80
6174;DHT22;3120;48.796;9.796;2023-06-22T21:56:52;22.90;70.20
6174;DHT22;3120;48.796;9.796;2023-06-22T21:59:18;22.90;70.50
6174;DHT22;3120;48.796;9.796;2023-06-22T22:01:43;22.80;70.90
6174;DHT22;3120;48.796;9.796;2023-06-22T22:04:09;22.90;71.50
6174;DHT22;3120;48.796;9.796;2023-06-22T22:06:34;22.70;72.20
6174;DHT22;3120;48.796;9.796;2023-06-22T22:09:01;22.60;73.10
6174;DHT22;3120;48.796;9.796;2023-06-22T22:11:26;22.50;73.80
6174;DHT22;3120;48.796;9.796;2023-06-22T22:13:52;22.30;74.60
6174;DHT22;3120;48.796;9.796;2023-06-22T22:16:20;22.10;75.60
6174;DHT22;3120;48.796;9.796;2023-06-22T22:18:46;22.10;76.40
6174;DHT22;3120;48.796;9.796;2023-06-22T22:21:13;22.00;77.10
6174;DHT22;3120;48.796;9.796;2023-06-22T22:23:38;22.00;77.50
6174;DHT22;3120;48.796;9.796;2023-06-22T22:26:04;22.00;77.60
6174;DHT22;3120;48.796;9.796;2023-06-22T22:28:30;21.90;78.10
6174;DHT22;3120;48.796;9.796;2023-06-22T22:30:58;21.80;78.40
6174;DHT22;3120;48.796;9.796;2023-06-22T22:33:24;21.70;78.70
6174;DHT22;3120;48.796;9.796;2023-06-22T22:35:50;21.70;79.10
6174;DHT22;3120;48.796;9.796;2023-06-22T22:38:16;21.60;79.20
6174;DHT22;3120;48.796;9.796;2023-06-22T22:40:42;21.60;79.40
6174;DHT22;3120;48.796;9.796;2023-06-22T22:46:30;21.50;79.70
6174;DHT22;3120;48.796;9.796;2023-06-22T22:48:56;21.50;79.90
6174;DHT22;3120;48.796;9.796;2023-06-22T22:51:22;21.50;79.70
6174;DHT22;3120;48.796;9.796;2023-06-22T22:53:47;21.60;80.00
6174;DHT22;3120;48.796;9.796;2023-06-22T22:56:13;21.60;80.00
6174;DHT22;3120;48.796;9.796;2023-06-22T22:58:38;21.40;80.20
6174;DHT22;3120;48.796;9.796;2023-06-22T23:01:04;21.40;80.70
6174;DHT22;3120;48.796;9.796;2023-06-22T23:03:30;21.30;81.10
6174;DHT22;3120;48.796;9.796;2023-06-22T23:05:56;21.30;81.20
6174;DHT22;3120;48.796;9.796;2023-06-22T23:08:22;21.30;81.20
6174;DHT22;3120;48.796;9.796;2023-06-22T23:10:48;21.30;81.20
6174;DHT22;3120;48.796;9.796;2023-06-22T23:13:14;21.20;81.60
6174;DHT22;3120;48.796;9.796;2023-06-22T23:15:40;21.20;81.80
6174;DHT22;3120;48.796;9.796;2023-06-22T23:18:05;21.20;81.80
6174;DHT22;3120;48.796;9.796;2023-06-22T23:20:36;21.20;81.70
6174;DHT22;3120;48.796;9.796;2023-06-22T23:23:05;21.30;81.00
6174;DHT22;3120;48.796;9.796;2023-06-22T23:25:31;21.20;81.30
6174;DHT22;3120;48.796;9.796;2023-06-22T23:27:56;21.10;81.90
6174;DHT22;3120;48.796;9.796;2023-06-22T23:30:23;21.10;82.30
6174;DHT22;3120;48.796;9.796;2023-06-22T23:32:52;21.10;82.10
6174;DHT22;3120;48.796;9.796;2023-06-22T23:35:18;21.00;82.20
6174;DHT22;3120;48.796;9.796;2023-06-22T23:37:43;21.00;82.50
6174;DHT22;3120;48.796;9.796;2023-06-22T23:40:11;21.10;82.50
6174;DHT22;3120;48.796;9.796;2023-06-22T23:42:44;21.00;82.30
6174;DHT22;3120;48.796;9.796;2023-06-22T23:45:21;21.00;82.20
6174;DHT22;3120;48.796;9.796;2023-06-22T23:47:48;21.00;82.10
6174;DHT22;3120;48.796;9.796;2023-06-22T23:50:14;21.00;82.40